createdAt,value
2022-08-17T00:02:26.250Z,99.90
2022-08-17T00:04:56.069Z,99.90
2022-08-17T00:07:23.142Z,99.90
2022-08-17T00:09:50.419Z,99.90
2022-08-17T00:12:44.422Z,99.90
2022-08-17T00:15:06.152Z,99.90
2022-08-17T00:17:37.359Z,99.90
2022-08-17T00:20:05.121Z,99.90
2022-08-17T00:22:36.355Z,99.90
2022-08-17T00:25:12.134Z,99.90
2022-08-17T00:27:39.462Z,99.90
2022-08-17T00:30:09.328Z,99.90
2022-08-17T00:33:11.902Z,99.90
2022-08-17T00:35:27.744Z,99.90
2022-08-17T00:37:55.457Z,99.90
2022-08-17T00:40:22.553Z,99.90
2022-08-17T00:42:53.115Z,99.90
2022-08-17T00:45:20.602Z,99.90
2022-08-17T00:47:48.030Z,99.90
2022-08-17T00:50:18.895Z,99.90
2022-08-17T00:52:54.929Z,99.90
2022-08-17T00:55:24.002Z,99.90
2022-08-17T00:57:55.548Z,99.90
2022-08-17T01:00:36.137Z,99.90
2022-08-17T01:03:08.496Z,99.90
2022-08-17T01:05:42.163Z,99.90
2022-08-17T01:08:13.530Z,99.90
2022-08-17T01:10:58.587Z,99.90
2022-08-17T01:13:39.785Z,99.90
2022-08-17T01:16:17.430Z,99.90
2022-08-17T01:18:46.879Z,99.90
2022-08-17T01:21:24.636Z,99.90
2022-08-17T01:23:52.030Z,99.90
2022-08-17T01:26:19.473Z,99.90
2022-08-17T01:28:54.949Z,99.90
2022-08-17T01:31:24.792Z,99.90
2022-08-17T01:33:51.810Z,99.90
2022-08-17T01:36:18.869Z,99.90
2022-08-17T01:38:45.825Z,99.90
2022-08-17T01:41:16.334Z,99.90
2022-08-17T01:43:55.650Z,99.90
2022-08-17T01:46:27.137Z,99.90
2022-08-17T01:48:56.317Z,99.90
2022-08-17T01:51:25.952Z,99.90
2022-08-17T01:53:57.904Z,99.90
2022-08-17T01:56:26.951Z,99.90
2022-08-17T01:58:54.137Z,99.90
2022-08-17T02:01:26.562Z,99.90
2022-08-17T02:03:59.655Z,99.90
2022-08-17T02:06:52.485Z,99.90
2022-08-17T02:09:19.217Z,99.90
2022-08-17T02:11:50.435Z,99.90
2022-08-17T02:14:18.004Z,99.90
2022-08-17T02:16:44.948Z,99.90
2022-08-17T02:19:15.769Z,99.90
2022-08-17T02:21:44.748Z,99.90
2022-08-17T02:24:17.401Z,99.90
2022-08-17T02:26:55.085Z,99.90
2022-08-17T02:29:22.084Z,99.90
2022-08-17T02:31:49.112Z,99.90
2022-08-17T02:34:16.165Z,99.90
2022-08-17T02:36:43.317Z,99.90
2022-08-17T02:39:12.507Z,99.90
2022-08-17T02:41:40.224Z,99.90
2022-08-17T02:44:07.771Z,99.90
2022-08-17T02:46:34.969Z,99.90
2022-08-17T02:49:01.920Z,99.90
2022-08-17T02:51:28.916Z,99.90
2022-08-17T02:54:40.817Z,99.90
2022-08-17T02:56:43.277Z,99.90
2022-08-17T02:59:10.148Z,99.90
2022-08-17T03:01:37.179Z,99.90
2022-08-17T03:04:04.329Z,99.90
2022-08-17T03:06:31.841Z,99.90
2022-08-17T03:08:58.888Z,99.90
2022-08-17T03:11:25.995Z,99.90
2022-08-17T03:13:52.948Z,99.90
2022-08-17T03:16:19.773Z,99.90
2022-08-17T03:18:46.771Z,99.90
2022-08-17T03:21:13.690Z,99.90
2022-08-17T03:23:43.333Z,99.90
2022-08-17T03:26:15.313Z,99.90
2022-08-17T03:28:42.665Z,99.90
2022-08-17T03:31:09.728Z,99.90
2022-08-17T03:33:36.584Z,99.90
2022-08-17T03:36:03.708Z,99.90
2022-08-17T03:38:39.251Z,99.90
2022-08-17T03:41:07.295Z,99.90
2022-08-17T03:43:34.765Z,99.90
2022-08-17T03:46:27.915Z,99.90
2022-08-17T03:49:24.681Z,99.90
2022-08-17T03:52:10.857Z,99.90
2022-08-17T03:54:56.197Z,99.90
2022-08-17T03:57:23.397Z,99.90
2022-08-17T03:59:51.035Z,99.90
2022-08-17T04:02:25.519Z,99.90
2022-08-17T04:04:52.601Z,99.90
2022-08-17T04:07:22.390Z,99.90
2022-08-17T04:09:49.463Z,99.90
2022-08-17T04:12:19.947Z,99.90
2022-08-17T04:14:53.107Z,99.90
2022-08-17T04:17:24.524Z,99.90
2022-08-17T04:19:51.643Z,99.90
2022-08-17T04:22:30.250Z,99.90
2022-08-17T04:25:06.105Z,99.90
2022-08-17T04:27:33.157Z,99.90
2022-08-17T04:30:00.371Z,99.90
2022-08-17T04:33:05.087Z,99.90
2022-08-17T04:35:21.981Z,99.90
2022-08-17T04:37:48.839Z,99.90
2022-08-17T04:40:34.746Z,99.90
2022-08-17T04:43:12.295Z,99.90
2022-08-17T04:45:55.192Z,99.90
2022-08-17T04:48:35.615Z,99.90
2022-08-17T04:51:08.068Z,99.90
2022-08-17T04:53:35.151Z,99.90
2022-08-17T04:56:02.215Z,99.90
2022-08-17T04:58:29.173Z,99.90
2022-08-17T05:00:56.115Z,99.90
2022-08-17T05:03:23.056Z,99.90
2022-08-17T05:05:50.122Z,99.90
2022-08-17T05:08:19.074Z,99.90
2022-08-17T05:10:46.923Z,99.90
2022-08-17T05:13:25.017Z,99.90
2022-08-17T05:15:58.585Z,99.90
2022-08-17T05:18:25.945Z,99.90
2022-08-17T05:20:53.796Z,99.90
2022-08-17T05:23:22.902Z,99.90
2022-08-17T05:25:52.722Z,99.90
2022-08-17T05:28:24.200Z,99.90
2022-08-17T05:30:56.799Z,99.90
2022-08-17T05:33:27.112Z,99.90
2022-08-17T05:35:57.367Z,99.90
2022-08-17T05:38:26.433Z,99.90
2022-08-17T05:40:54.411Z,99.90
2022-08-17T05:43:24.100Z,99.90
2022-08-17T05:46:32.137Z,99.90
2022-08-17T05:49:03.574Z,99.90
2022-08-17T05:51:42.401Z,99.90
2022-08-17T05:54:24.512Z,99.90
2022-08-17T05:57:08.942Z,99.90
2022-08-17T05:59:55.933Z,99.90
2022-08-17T06:02:56.019Z,99.90
2022-08-17T06:05:33.818Z,99.90
2022-08-17T06:08:10.517Z,99.90
2022-08-17T06:10:59.269Z,99.90
2022-08-17T06:13:44.849Z,99.90
2022-08-17T06:16:32.978Z,99.90
2022-08-17T06:19:10.299Z,99.90
2022-08-17T06:21:42.321Z,99.90
2022-08-17T06:24:48.079Z,99.90
2022-08-17T06:27:38.757Z,99.90
2022-08-17T06:30:14.388Z,99.90
2022-08-17T06:32:44.756Z,99.90
2022-08-17T06:35:18.519Z,99.90
2022-08-17T06:38:09.773Z,99.90
2022-08-17T06:41:16.386Z,99.90
2022-08-17T06:43:56.255Z,97.50
2022-08-17T06:46:36.625Z,95.90
2022-08-17T06:49:09.614Z,94.60
2022-08-17T06:51:59.677Z,93.40
2022-08-17T06:54:55.504Z,92.70
2022-08-17T06:57:30.126Z,92.30
2022-08-17T07:00:16.522Z,91.30
2022-08-17T07:03:08.840Z,90.90
2022-08-17T07:05:41.471Z,93.70
2022-08-17T07:08:35.345Z,96.70
2022-08-17T07:11:09.593Z,97.80
2022-08-17T07:14:07.075Z,97.40
2022-08-17T07:16:41.324Z,93.90
2022-08-17T07:19:10.858Z,91.40
2022-08-17T07:22:04.700Z,91.20
2022-08-17T07:24:47.390Z,90.50
2022-08-17T07:27:21.238Z,90.90
2022-08-17T07:29:48.126Z,90.70
2022-08-17T07:32:19.248Z,91.30
2022-08-17T07:35:37.739Z,91.70
2022-08-17T07:38:37.090Z,91.70
2022-08-17T07:41:09.983Z,91.90
2022-08-17T07:43:39.922Z,93.10
2022-08-17T07:46:47.341Z,94.70
2022-08-17T07:49:14.214Z,96.50
2022-08-17T07:51:56.604Z,97.10
2022-08-17T07:54:29.561Z,97.90
2022-08-17T07:57:00.505Z,98.90
2022-08-17T07:59:43.805Z,98.80
2022-08-17T08:02:17.182Z,99.50
2022-08-17T08:05:00.901Z,99.50
2022-08-17T08:07:54.961Z,99.40
2022-08-17T08:10:38.968Z,99.70
2022-08-17T08:13:20.995Z,99.80
2022-08-17T08:15:53.839Z,99.90
2022-08-17T08:18:53.587Z,99.50
2022-08-17T08:21:39.007Z,99.20
2022-08-17T08:24:30.778Z,99.40
2022-08-17T08:27:15.971Z,99.10
2022-08-17T08:29:50.251Z,99.40
2022-08-17T08:32:48.603Z,99.40
2022-08-17T08:35:37.273Z,99.30
2022-08-17T08:38:31.376Z,99.70
2022-08-17T08:41:21.853Z,99.50
2022-08-17T08:44:06.979Z,99.00
2022-08-17T08:46:40.557Z,97.40
2022-08-17T08:49:19.148Z,98.10
2022-08-17T08:51:46.513Z,99.00
2022-08-17T08:54:36.337Z,98.90
2022-08-17T08:59:58.190Z,97.80
2022-08-17T09:02:35.159Z,98.20
2022-08-17T09:05:20.778Z,98.40
2022-08-17T09:08:26.986Z,98.40
2022-08-17T09:10:59.802Z,98.30
2022-08-17T09:13:35.930Z,97.90
2022-08-17T09:16:15.281Z,97.90
2022-08-17T09:19:00.010Z,97.30
2022-08-17T09:21:55.064Z,96.20
2022-08-17T09:24:49.144Z,97.20
2022-08-17T09:27:24.853Z,95.90
2022-08-17T09:30:02.559Z,95.80
2022-08-17T09:32:52.085Z,95.70
2022-08-17T09:35:32.921Z,95.80
2022-08-17T09:38:30.462Z,95.20
2022-08-17T09:41:24.264Z,94.90
2022-08-17T09:44:25.600Z,95.00
2022-08-17T09:46:59.980Z,94.00
2022-08-17T09:49:51.133Z,94.60
2022-08-17T09:52:23.820Z,93.60
2022-08-17T09:54:53.409Z,93.60
2022-08-17T09:57:30.264Z,93.30
2022-08-17T10:00:09.715Z,93.10
2022-08-17T10:03:16.165Z,93.00
2022-08-17T10:05:57.932Z,92.80
2022-08-17T10:08:54.875Z,92.90
2022-08-17T10:11:57.621Z,92.70
2022-08-17T10:14:44.208Z,92.30
2022-08-17T10:17:23.531Z,91.30
2022-08-17T10:20:08.998Z,91.20
2022-08-17T10:23:35.833Z,91.50
2022-08-17T10:26:14.343Z,91.20
2022-08-17T10:28:59.461Z,91.50
2022-08-17T10:31:35.102Z,91.30
2022-08-17T10:34:38.639Z,91.20
2022-08-17T10:37:32.441Z,91.30
2022-08-17T10:40:17.947Z,90.30
2022-08-17T10:43:18.956Z,89.10
2022-08-17T10:46:31.371Z,88.00
2022-08-17T10:49:17.258Z,87.70
2022-08-17T10:51:48.323Z,88.00
2022-08-17T10:54:24.424Z,87.50
2022-08-17T10:56:58.611Z,88.30
2022-08-17T10:59:37.285Z,85.40
2022-08-17T11:02:04.157Z,85.90
2022-08-17T11:04:50.098Z,87.20
2022-08-17T11:07:52.532Z,88.20
2022-08-17T11:10:52.254Z,88.60
2022-08-17T11:13:48.686Z,86.90
2022-08-17T11:16:33.241Z,88.50
2022-08-17T11:19:30.836Z,87.90
2022-08-17T11:22:16.535Z,88.20
2022-08-17T11:24:51.354Z,89.80
2022-08-17T11:27:23.982Z,90.60
2022-08-17T11:30:01.491Z,90.40
2022-08-17T11:32:34.339Z,90.80
2022-08-17T11:35:12.036Z,90.80
2022-08-17T11:37:56.325Z,90.60
2022-08-17T11:40:36.764Z,90.60
2022-08-17T11:43:09.624Z,89.30
2022-08-17T11:46:02.232Z,91.10
2022-08-17T11:49:11.185Z,91.20
2022-08-17T11:52:09.909Z,90.90
2022-08-17T11:54:49.211Z,90.60
2022-08-17T11:57:30.920Z,90.50
2022-08-17T12:00:44.996Z,90.80
2022-08-17T12:03:43.275Z,90.70
2022-08-17T12:06:30.891Z,91.40
2022-08-17T12:09:09.244Z,92.00
2022-08-17T12:12:13.000Z,91.40
2022-08-17T12:15:10.223Z,91.40
2022-08-17T12:17:46.149Z,92.40
2022-08-17T12:20:42.666Z,92.70
2022-08-17T12:23:25.600Z,92.30
2022-08-17T12:25:58.125Z,91.40
2022-08-17T12:28:31.549Z,91.50
2022-08-17T12:31:04.265Z,90.80
2022-08-17T12:33:31.494Z,90.90
2022-08-17T12:36:03.239Z,91.30
2022-08-17T12:38:34.481Z,90.80
2022-08-17T12:41:23.641Z,90.30
2022-08-17T12:44:04.131Z,90.60
2022-08-17T12:46:54.893Z,91.30
2022-08-17T12:49:28.124Z,92.60
2022-08-17T12:52:11.099Z,92.40
2022-08-17T12:54:48.585Z,92.00
2022-08-17T12:57:25.399Z,92.60
2022-08-17T12:59:58.817Z,93.00
2022-08-17T13:03:05.950Z,93.10
2022-08-17T13:05:42.485Z,93.70
2022-08-17T13:08:27.475Z,94.00
2022-08-17T13:10:59.505Z,93.80
2022-08-17T13:13:32.517Z,93.20
2022-08-17T13:16:16.323Z,92.70
2022-08-17T13:18:50.517Z,93.30
2022-08-17T13:21:22.355Z,93.00
2022-08-17T13:24:02.761Z,93.20
2022-08-17T13:26:38.662Z,93.30
2022-08-17T13:29:16.539Z,92.60
2022-08-17T13:31:52.817Z,92.90
2022-08-17T13:34:29.554Z,93.00
2022-08-17T13:37:19.011Z,93.50
2022-08-17T13:39:48.786Z,92.90
2022-08-17T13:42:52.086Z,93.40
2022-08-17T13:45:36.886Z,92.80
2022-08-17T13:48:14.023Z,92.90
2022-08-17T13:50:46.435Z,92.50
2022-08-17T13:53:21.113Z,92.60
2022-08-17T13:56:04.438Z,92.70
2022-08-17T13:58:36.055Z,92.20
2022-08-17T14:01:30.836Z,92.70
2022-08-17T14:03:59.112Z,92.70
2022-08-17T14:06:53.021Z,92.00
2022-08-17T14:09:22.187Z,92.70
2022-08-17T14:11:51.250Z,92.10
2022-08-17T14:14:18.701Z,91.80
2022-08-17T14:16:45.735Z,92.30
2022-08-17T14:19:14.442Z,92.30
2022-08-17T14:21:44.858Z,92.20
2022-08-17T14:24:25.279Z,92.20
2022-08-17T14:26:53.077Z,91.80
2022-08-17T14:29:21.860Z,91.20
2022-08-17T14:31:54.132Z,91.50
2022-08-17T14:34:25.418Z,91.20
2022-08-17T14:36:52.899Z,91.60
2022-08-17T14:39:21.177Z,91.10
2022-08-17T14:41:50.393Z,90.90
2022-08-17T14:44:18.489Z,90.80
2022-08-17T14:46:56.488Z,90.80
2022-08-17T14:49:26.458Z,91.10
2022-08-17T14:51:54.105Z,90.90
2022-08-17T14:54:33.204Z,91.70
2022-08-17T14:57:22.857Z,92.10
2022-08-17T14:59:54.858Z,92.50
2022-08-17T15:02:30.059Z,93.00
2022-08-17T15:05:05.970Z,92.90
2022-08-17T15:07:32.903Z,92.40
2022-08-17T15:10:04.598Z,91.90
2022-08-17T15:12:34.039Z,92.10
2022-08-17T15:15:15.483Z,92.10
2022-08-17T15:17:47.648Z,92.10
2022-08-17T15:20:20.816Z,92.80
2022-08-17T15:22:49.909Z,93.80
2022-08-17T15:25:18.927Z,93.20
2022-08-17T15:27:46.236Z,93.50
2022-08-17T15:30:13.483Z,93.90
2022-08-17T15:32:50.709Z,93.80
2022-08-17T15:35:26.831Z,94.10
2022-08-17T15:37:54.626Z,93.70
2022-08-17T15:40:21.591Z,93.30
2022-08-17T15:42:49.003Z,93.10
2022-08-17T15:45:16.940Z,93.30
2022-08-17T15:47:43.987Z,93.40
2022-08-17T15:50:11.215Z,93.50
2022-08-17T15:52:40.095Z,93.80
2022-08-17T15:55:11.025Z,93.10
2022-08-17T15:57:38.018Z,93.30
2022-08-17T16:00:07.627Z,93.40
2022-08-17T16:03:44.913Z,93.00
2022-08-17T16:05:28.611Z,93.10
2022-08-17T16:07:59.671Z,93.10
2022-08-17T16:10:34.734Z,93.10
2022-08-17T16:13:04.242Z,93.30
2022-08-17T16:15:31.976Z,93.40
2022-08-17T16:17:59.493Z,93.60
2022-08-17T16:20:26.904Z,94.30
2022-08-17T16:22:54.655Z,94.60
2022-08-17T16:25:53.268Z,94.30
2022-08-17T16:28:17.458Z,94.50
2022-08-17T16:30:45.455Z,94.20
2022-08-17T16:33:13.560Z,94.10
2022-08-17T16:35:41.947Z,93.80
2022-08-17T16:38:09.493Z,93.50
2022-08-17T16:40:36.590Z,93.00
2022-08-17T16:43:07.037Z,93.50
2022-08-17T16:45:36.511Z,94.10
2022-08-17T16:48:04.504Z,94.40
2022-08-17T16:50:32.578Z,94.70
2022-08-17T16:53:17.905Z,95.20
2022-08-17T16:55:46.275Z,95.60
2022-08-17T16:58:14.214Z,95.90
2022-08-17T17:00:42.524Z,96.00
2022-08-17T17:03:19.337Z,96.20
2022-08-17T17:06:07.156Z,96.60
2022-08-17T17:08:46.757Z,96.90
2022-08-17T17:11:23.266Z,97.40
2022-08-17T17:13:59.747Z,97.80
2022-08-17T17:16:45.962Z,98.10
2022-08-17T17:19:35.183Z,98.50
2022-08-17T17:22:14.611Z,98.80
2022-08-17T17:24:51.547Z,98.90
2022-08-17T17:27:52.292Z,99.20
2022-08-17T17:30:45.604Z,99.50
2022-08-17T17:33:34.866Z,99.10
2022-08-17T17:36:23.562Z,99.50
2022-08-17T17:39:01.357Z,99.90
2022-08-17T17:41:34.321Z,99.70
2022-08-17T17:44:12.241Z,99.80
2022-08-17T17:46:53.202Z,99.90
2022-08-17T17:49:20.582Z,99.90
2022-08-17T17:52:09.076Z,99.90
2022-08-17T17:54:50.064Z,99.90
2022-08-17T17:57:24.627Z,99.90
2022-08-17T18:00:02.069Z,99.90
2022-08-17T18:03:11.959Z,99.90
2022-08-17T18:06:00.709Z,99.90
2022-08-17T18:08:59.353Z,99.90
2022-08-17T18:11:44.378Z,99.90
2022-08-17T18:14:40.264Z,99.90
2022-08-17T18:17:07.296Z,99.90
2022-08-17T18:19:34.809Z,99.90
2022-08-17T18:22:14.848Z,99.90
2022-08-17T18:24:45.864Z,99.90
2022-08-17T18:27:24.861Z,99.90
2022-08-17T18:29:54.546Z,99.90
2022-08-17T18:32:29.171Z,99.90
2022-08-17T18:35:16.504Z,99.90
2022-08-17T18:37:48.191Z,99.90
2022-08-17T18:40:18.404Z,99.90
2022-08-17T18:42:56.865Z,99.90
2022-08-17T18:45:46.789Z,99.90
2022-08-17T18:48:59.092Z,99.90
2022-08-17T18:51:40.831Z,99.90
2022-08-17T18:54:15.230Z,99.90
2022-08-17T18:57:04.317Z,99.90
2022-08-17T18:59:38.297Z,99.90
2022-08-17T19:02:38.714Z,99.90
2022-08-17T19:05:09.811Z,99.90
2022-08-17T19:07:43.452Z,99.90
2022-08-17T19:10:19.849Z,99.90
2022-08-17T19:13:12.671Z,99.90
2022-08-17T19:16:11.641Z,99.90
2022-08-17T19:18:42.274Z,99.90
2022-08-17T19:21:19.761Z,99.90
2022-08-17T19:24:06.350Z,99.90
2022-08-17T19:26:54.052Z,99.90
2022-08-17T19:29:34.324Z,99.90
2022-08-17T19:32:01.997Z,99.90
2022-08-17T19:34:33.902Z,99.90
2022-08-17T19:37:31.713Z,99.90
2022-08-17T19:40:51.779Z,99.90
2022-08-17T19:43:49.044Z,99.90
2022-08-17T19:46:39.170Z,99.90
2022-08-17T19:49:41.586Z,99.90
2022-08-17T19:52:30.360Z,99.90
2022-08-17T19:55:20.849Z,99.90
2022-08-17T19:58:17.755Z,99.90
2022-08-17T20:00:50.821Z,99.90
2022-08-17T20:04:09.682Z,99.90
2022-08-17T20:06:40.401Z,99.90
2022-08-17T20:09:17.963Z,99.90
2022-08-17T20:11:54.853Z,99.90
2022-08-17T20:14:39.963Z,99.90
2022-08-17T20:17:31.041Z,99.90
2022-08-17T20:20:04.923Z,99.90
2022-08-17T20:22:49.581Z,99.90
2022-08-17T20:25:57.369Z,99.90
2022-08-17T20:28:25.845Z,99.90
2022-08-17T20:30:52.986Z,99.90
2022-08-17T20:33:25.889Z,99.90
2022-08-17T20:36:11.258Z,99.90
2022-08-17T20:38:40.750Z,99.90
2022-08-17T20:41:22.476Z,99.90
2022-08-17T20:44:00.573Z,99.90
2022-08-17T20:46:34.117Z,99.90
2022-08-17T20:49:38.708Z,99.90
2022-08-17T20:52:13.716Z,99.90
2022-08-17T20:54:54.103Z,99.90
2022-08-17T20:57:33.337Z,99.90
2022-08-17T21:00:21.720Z,99.90
2022-08-17T21:02:51.525Z,99.90
2022-08-17T21:05:35.246Z,99.90
2022-08-17T21:08:15.424Z,99.90
2022-08-17T21:10:45.561Z,99.90
2022-08-17T21:13:13.956Z,99.90
2022-08-17T21:15:48.518Z,99.90
2022-08-17T21:18:35.929Z,99.90
2022-08-17T21:21:17.254Z,99.90
2022-08-17T21:24:00.013Z,99.90
2022-08-17T21:26:50.679Z,99.90
2022-08-17T21:29:31.245Z,99.90
2022-08-17T21:31:59.623Z,99.90
2022-08-17T21:34:39.409Z,99.90
2022-08-17T21:37:24.034Z,99.90
2022-08-17T21:39:54.134Z,99.90
2022-08-17T21:42:31.294Z,99.90
2022-08-17T21:45:10.278Z,99.90
2022-08-17T21:47:40.960Z,99.90
2022-08-17T21:50:25.134Z,99.90
2022-08-17T21:52:54.537Z,99.90
2022-08-17T21:55:30.773Z,99.90
2022-08-17T21:58:13.848Z,99.90
2022-08-17T22:00:44.683Z,99.90
2022-08-17T22:03:24.315Z,99.90
2022-08-17T22:05:51.551Z,99.90
2022-08-17T22:08:25.774Z,99.90
2022-08-17T22:11:01.528Z,99.90
2022-08-17T22:13:29.713Z,99.90
2022-08-17T22:16:27.633Z,99.90
2022-08-17T22:18:53.737Z,99.90
2022-08-17T22:21:22.691Z,99.90
2022-08-17T22:24:05.364Z,99.90
2022-08-17T22:27:08.509Z,99.90
2022-08-17T22:29:58.713Z,99.90
2022-08-17T22:32:37.314Z,99.90
2022-08-17T22:35:34.422Z,99.90
2022-08-17T22:38:19.530Z,99.90
2022-08-17T22:40:52.488Z,99.90
2022-08-17T22:43:26.072Z,99.90
2022-08-17T22:45:57.321Z,99.90
2022-08-17T22:48:27.596Z,99.90
2022-08-17T22:51:17.366Z,99.90
2022-08-17T22:54:15.967Z,99.90
2022-08-17T22:57:18.599Z,99.90
2022-08-17T22:59:52.710Z,99.90
2022-08-17T23:02:28.351Z,99.90
2022-08-17T23:05:16.743Z,99.90
2022-08-17T23:07:45.478Z,99.90
2022-08-17T23:10:13.772Z,99.90
2022-08-17T23:12:41.284Z,99.90
2022-08-17T23:15:14.296Z,99.90
2022-08-17T23:17:42.088Z,99.90
2022-08-17T23:20:12.616Z,99.90
2022-08-17T23:22:51.176Z,99.90
2022-08-17T23:25:26.475Z,99.90
2022-08-17T23:27:54.374Z,99.90
2022-08-17T23:30:24.923Z,99.90
2022-08-17T23:32:54.025Z,99.90
2022-08-17T23:35:38.982Z,99.90
2022-08-17T23:38:11.051Z,99.90
2022-08-17T23:40:39.575Z,99.90
2022-08-17T23:43:24.308Z,99.90
2022-08-17T23:45:57.503Z,99.90
2022-08-17T23:48:35.919Z,99.90
2022-08-17T23:51:08.623Z,99.90
2022-08-17T23:53:40.146Z,99.90
2022-08-17T23:56:11.087Z,99.90
2022-08-17T23:58:42.098Z,99.90
